Time;durP1;ratioP1;P1;durP2;ratioP2;P2;SDS_P1;SDS_P2;PMS_P1;PMS_P2;Temp;Humidity;BMP_temperature;BMP_pressure;BME280_temperature;BME280_humidity;BME280_pressure;Samples;Min_cycle;Max_cycle;Signal;HPM_P1;HPM_P2
2022/08/04 00:00:48;;;;;;;;;;;;;;;17.56;82.71;95365.88;5074226;28;1588;-48
2022/08/04 00:03:14;;;;;;;;;;;;;;;17.62;82.94;95361.53;5074075;28;1036;-49
2022/08/04 00:05:43;;;;;;;;;;;;;;;17.56;82.93;95360.47;5073976;28;1073;-49
2022/08/04 00:08:09;;;;;;;;;;;;;;;17.43;83.36;95367.66;5073807;28;1207;-48
2022/08/04 00:10:38;;;;;;;;;;;;;;;17.43;83.27;95363.09;5074045;28;1905;-49
2022/08/04 00:13:04;;;;;;;;;;;;;;;17.47;83.23;95361.69;5073620;28;1095;-49
2022/08/04 00:15:31;;;;;;;;;;;;;;;17.41;83.15;95361.63;5073960;28;961;-49
2022/08/04 00:17:57;;;;;;;;;;;;;;;17.49;82.90;95362.31;5073926;28;977;-49
2022/08/04 00:20:28;;;;;;;;;;;;;;;17.63;82.53;95365.91;5073760;28;1119;-49
2022/08/04 00:22:54;;;;;;;;;;;;;;;17.75;81.65;95367.00;5074248;28;1076;-48
2022/08/04 00:25:21;;;;;;;;;;;;;;;17.70;82.33;95363.25;5073941;28;1048;-48
2022/08/04 00:27:47;;;;;;;;;;;;;;;17.73;82.30;95365.56;5073732;28;976;-49
2022/08/04 00:30:14;;;;;;;;;;;;;;;17.70;82.29;95361.38;5073806;28;1910;-49
2022/08/04 00:32:40;;;;;;;;;;;;;;;17.73;82.57;95362.84;5073516;28;957;-49
2022/08/04 00:35:08;;;;;;;;;;;;;;;17.73;82.14;95360.97;5073424;28;1033;-48
2022/08/04 00:37:36;;;;;;;;;;;;;;;17.70;82.90;95369.50;5073121;28;1021;-48
2022/08/04 00:40:06;;;;;;;;;;;;;;;17.56;82.63;95371.28;5073966;28;1029;-49
2022/08/04 00:42:37;;;;;;;;;;;;;;;17.53;83.18;95373.56;5073475;28;970;-49
2022/08/04 00:45:09;;;;;;;;;;;;;;;17.42;83.08;95374.94;5093687;28;1234;-48
2022/08/04 00:48:08;;;;;;;;;;;;;;;17.16;82.84;95365.63;5093534;28;979;-48
2022/08/04 00:50:40;;;;;;;;;;;;;;;17.12;84.01;95368.91;5049370;28;1987;-49
2022/08/04 00:53:27;;;;;;;;;;;;;;;17.26;83.58;95372.53;5093614;28;1045;-49
2022/08/04 00:56:02;;;;;;;;;;;;;;;17.13;83.88;95375.97;5093495;28;1304;-48
2022/08/04 00:58:41;;;;;;;;;;;;;;;17.06;84.04;95377.81;5093691;28;983;-49
2022/08/04 01:01:15;;;;;;;;;;;;;;;17.18;83.12;95378.94;5093739;28;972;-49
2022/08/04 01:03:49;;;;;;;;;;;;;;;17.30;83.44;95377.38;5093575;28;966;-48
2022/08/04 01:06:35;;;;;;;;;;;;;;;17.26;83.22;95386.88;5093515;28;964;-49
2022/08/04 01:09:01;;;;;;;;;;;;;;;17.06;83.92;95383.22;5093466;28;1080;-48
2022/08/04 01:11:39;;;;;;;;;;;;;;;17.21;83.10;95378.56;5093612;28;1973;-48
2022/08/04 01:14:08;;;;;;;;;;;;;;;17.09;83.16;95382.81;5093451;28;974;-48
2022/08/04 01:16:40;;;;;;;;;;;;;;;17.07;83.98;95387.56;5093391;28;1201;-48
2022/08/04 01:19:14;;;;;;;;;;;;;;;17.02;83.97;95381.94;5093247;28;992;-49
2022/08/04 01:21:43;;;;;;;;;;;;;;;17.06;83.64;95386.75;5093643;28;1038;-48
2022/08/04 01:24:15;;;;;;;;;;;;;;;17.01;83.93;95386.50;5093307;28;966;-49
2022/08/04 01:26:48;;;;;;;;;;;;;;;17.13;83.56;95384.06;5093560;28;1050;-48
2022/08/04 01:29:14;;;;;;;;;;;;;;;17.11;83.63;95389.72;5092755;28;1909;-48
2022/08/04 01:31:53;;;;;;;;;;;;;;;17.10;83.73;95393.44;5075957;28;1013;-48
2022/08/04 01:34:20;;;;;;;;;;;;;;;17.07;83.89;95388.41;5093234;28;1033;-48
2022/08/04 01:36:56;;;;;;;;;;;;;;;16.95;83.51;95387.28;5093425;28;1020;-49
2022/08/04 01:39:41;;;;;;;;;;;;;;;16.89;83.64;95391.59;5093240;28;1684;-48
2022/08/04 01:42:08;;;;;;;;;;;;;;;17.00;83.62;95381.28;5093007;28;1053;-48
2022/08/04 01:44:35;;;;;;;;;;;;;;;16.99;83.70;95391.25;5077171;28;1157;-48
2022/08/04 01:47:01;;;;;;;;;;;;;;;16.90;83.46;95381.63;5072838;28;1088;-48
2022/08/04 01:49:31;;;;;;;;;;;;;;;16.73;84.57;95373.78;5075634;28;1988;-48
2022/08/04 01:51:57;;;;;;;;;;;;;;;16.79;83.69;95381.09;5076743;28;1037;-48
2022/08/04 01:54:24;;;;;;;;;;;;;;;16.72;83.94;95380.19;5076694;28;1096;-49
2022/08/04 01:56:50;;;;;;;;;;;;;;;16.47;84.80;95381.63;5076407;28;1046;-49
2022/08/04 01:59:17;;;;;;;;;;;;;;;16.35;85.50;95384.81;5076532;28;966;-48
2022/08/04 02:01:43;;;;;;;;;;;;;;;16.50;85.40;95373.94;5076506;28;1085;-48
2022/08/04 02:04:21;;;;;;;;;;;;;;;16.61;85.18;95383.41;5076205;28;1025;-49
2022/08/04 02:06:47;;;;;;;;;;;;;;;16.66;84.31;95380.97;5076388;28;1044;-49
2022/08/04 02:09:21;;;;;;;;;;;;;;;16.83;83.18;95368.06;5075952;28;2054;-48
2022/08/04 02:12:07;;;;;;;;;;;;;;;16.82;83.47;95377.19;5076264;28;1033;-48
2022/08/04 02:14:44;;;;;;;;;;;;;;;16.63;83.83;95380.53;5075851;28;1910;-48
2022/08/04 02:17:12;;;;;;;;;;;;;;;16.58;84.19;95384.63;5076250;28;1030;-48
2022/08/04 02:19:47;;;;;;;;;;;;;;;16.58;83.77;95387.34;5075932;28;958;-48
2022/08/04 02:22:16;;;;;;;;;;;;;;;16.52;84.26;95382.72;5075978;28;1014;-48
2022/08/04 02:24:45;;;;;;;;;;;;;;;16.61;83.79;95393.38;5076083;28;986;-48
2022/08/04 02:27:12;;;;;;;;;;;;;;;16.67;83.94;95392.59;5076025;28;966;-48
2022/08/04 02:29:48;;;;;;;;;;;;;;;16.58;83.82;95394.59;5075895;28;1929;-48
2022/08/04 02:32:20;;;;;;;;;;;;;;;16.46;84.11;95385.34;5075756;28;1041;-49
2022/08/04 02:34:52;;;;;;;;;;;;;;;16.31;84.57;95388.91;5075837;28;1040;-48
2022/08/04 02:37:19;;;;;;;;;;;;;;;16.15;85.00;95392.69;5076130;28;1054;-48
2022/08/04 02:39:46;;;;;;;;;;;;;;;15.99;85.54;95396.44;5075696;28;994;-48
2022/08/04 02:42:13;;;;;;;;;;;;;;;16.15;85.06;95389.97;5075648;28;955;-49
2022/08/04 02:44:40;;;;;;;;;;;;;;;16.30;85.47;95394.53;5092022;28;1229;-49
2022/08/04 02:47:06;;;;;;;;;;;;;;;16.47;84.99;95387.84;5095947;28;973;-48
2022/08/04 02:49:36;;;;;;;;;;;;;;;16.54;84.71;95387.91;5095718;28;1992;-49
2022/08/04 02:52:03;;;;;;;;;;;;;;;16.50;84.87;95392.84;5095886;28;1035;-49
2022/08/04 02:54:38;;;;;;;;;;;;;;;16.50;84.44;95392.84;5095341;28;1226;-49
2022/08/04 02:57:07;;;;;;;;;;;;;;;16.45;83.83;95395.31;5095641;28;1048;-49
2022/08/04 02:59:52;;;;;;;;;;;;;;;16.46;82.94;95391.56;5094884;28;1027;-48
2022/08/04 03:02:25;;;;;;;;;;;;;;;16.50;82.72;95392.00;5095764;28;1051;-48
2022/08/04 03:05:02;;;;;;;;;;;;;;;16.19;84.33;95388.56;5095458;28;978;-48
2022/08/04 03:07:28;;;;;;;;;;;;;;;16.12;85.00;95390.34;5095719;28;973;-48
2022/08/04 03:10:12;;;;;;;;;;;;;;;16.14;84.78;95388.31;5095279;28;2001;-48
2022/08/04 03:12:38;;;;;;;;;;;;;;;15.97;85.60;95393.09;5095343;28;1021;-49
2022/08/04 03:15:20;;;;;;;;;;;;;;;15.91;86.54;95393.00;5094976;28;1037;-48
2022/08/04 03:18:07;;;;;;;;;;;;;;;16.03;85.88;95396.06;5095143;28;1088;-48
2022/08/04 03:20:51;;;;;;;;;;;;;;;16.11;85.65;95404.88;5095447;28;1048;-49
2022/08/04 03:23:53;;;;;;;;;;;;;;;16.06;85.73;95396.50;5095153;28;1008;-48
2022/08/04 03:26:40;;;;;;;;;;;;;;;16.14;85.28;95398.25;5012857;28;1300;-48
2022/08/04 03:29:21;;;;;;;;;;;;;;;16.17;85.24;95397.88;5090220;28;1157;-48
2022/08/04 03:31:47;;;;;;;;;;;;;;;16.11;85.37;95402.19;5095241;28;1015;-48
2022/08/04 03:34:32;;;;;;;;;;;;;;;16.12;85.08;95395.75;5094855;28;964;-48
2022/08/04 03:37:16;;;;;;;;;;;;;;;16.16;84.73;95396.22;5094757;28;1036;-48
2022/08/04 03:39:42;;;;;;;;;;;;;;;15.91;84.25;95398.41;5094756;28;1024;-48
2022/08/04 03:42:10;;;;;;;;;;;;;;;15.79;85.43;95409.66;5094816;28;983;-48
2022/08/04 03:44:43;;;;;;;;;;;;;;;15.85;85.90;95409.94;5078399;28;1153;-48
2022/08/04 03:47:12;;;;;;;;;;;;;;;15.94;85.81;95400.72;5074524;28;1028;-50
2022/08/04 03:49:38;;;;;;;;;;;;;;;15.99;85.81;95403.69;5074136;28;1906;-48
2022/08/04 03:55:19;;;;;;;;;;;;;;;16.05;85.75;95413.72;5074190;28;1247;-48
2022/08/04 03:58:14;;;;;;;;;;;;;;;16.16;85.14;95413.25;5074469;28;1045;-48
2022/08/04 04:00:57;;;;;;;;;;;;;;;16.23;85.21;95423.28;5074673;28;1020;-48
2022/08/04 04:03:32;;;;;;;;;;;;;;;16.24;84.91;95417.69;5074624;28;1035;-48
2022/08/04 04:06:16;;;;;;;;;;;;;;;16.39;84.65;95425.75;5074278;28;980;-48
2022/08/04 04:08:48;;;;;;;;;;;;;;;16.53;84.18;95422.16;5074458;28;1015;-47
2022/08/04 04:11:33;;;;;;;;;;;;;;;16.60;84.89;95422.25;5073226;28;2025;-48
2022/08/04 04:14:02;;;;;;;;;;;;;;;16.63;83.41;95434.50;5074067;28;1026;-48
2022/08/04 04:16:37;;;;;;;;;;;;;;;16.62;84.24;95428.28;5074031;28;1045;-48
2022/08/04 04:19:10;;;;;;;;;;;;;;;16.64;84.07;95430.75;5074043;28;1013;-48
2022/08/04 04:21:55;;;;;;;;;;;;;;;16.65;84.88;95432.44;5073851;28;1002;-48
2022/08/04 04:24:32;;;;;;;;;;;;;;;16.88;84.59;95432.28;5073794;28;1045;-48
2022/08/04 04:27:07;;;;;;;;;;;;;;;17.15;83.93;95425.28;5073884;28;1005;-48
2022/08/04 04:29:33;;;;;;;;;;;;;;;17.24;83.87;95436.75;5073673;28;1914;-48
2022/08/04 04:32:18;;;;;;;;;;;;;;;17.31;84.00;95433.06;5073786;28;1116;-48
2022/08/04 04:34:47;;;;;;;;;;;;;;;17.43;83.93;95440.66;5074065;28;1048;-48
2022/08/04 04:37:16;;;;;;;;;;;;;;;17.45;83.93;95439.41;5074154;28;1025;-48
2022/08/04 04:40:00;;;;;;;;;;;;;;;17.71;83.21;95440.63;5074069;28;980;-49
2022/08/04 04:42:41;;;;;;;;;;;;;;;18.08;80.95;95436.72;5074008;28;1033;-48
2022/08/04 04:45:10;;;;;;;;;;;;;;;18.27;81.55;95431.59;5073206;28;1029;-49
2022/08/04 04:47:49;;;;;;;;;;;;;;;18.32;80.31;95440.75;5073520;28;1021;-49
2022/08/04 04:50:41;;;;;;;;;;;;;;;18.25;82.41;95434.50;5073072;28;1997;-48
2022/08/04 04:53:26;;;;;;;;;;;;;;;18.46;79.08;95441.66;5042589;28;1093;-49
2022/08/04 04:56:02;;;;;;;;;;;;;;;18.62;80.11;95432.31;5073033;28;1227;-50
2022/08/04 04:58:30;;;;;;;;;;;;;;;18.74;78.50;95432.56;5073253;28;1026;-49
2022/08/04 05:00:56;;;;;;;;;;;;;;;18.92;79.02;95432.84;5073226;28;1032;-48
2022/08/04 05:03:54;;;;;;;;;;;;;;;19.02;79.41;95429.72;5073454;28;1021;-49
2022/08/04 05:06:27;;;;;;;;;;;;;;;19.29;78.58;95427.88;5028939;28;1154;-49
2022/08/04 05:08:53;;;;;;;;;;;;;;;19.49;77.41;95430.56;5073270;28;1039;-50
2022/08/04 05:11:22;;;;;;;;;;;;;;;19.45;76.84;95433.91;5073158;28;1914;-49
2022/08/04 05:13:53;;;;;;;;;;;;;;;19.57;77.72;95434.09;5073552;28;994;-48
2022/08/04 05:16:25;;;;;;;;;;;;;;;19.63;75.19;95436.78;5073319;28;1059;-50
2022/08/04 05:19:14;;;;;;;;;;;;;;;19.70;76.33;95442.22;5073487;28;903;-49
2022/08/04 05:21:43;;;;;;;;;;;;;;;19.67;75.44;95440.78;5072856;28;1013;-49
2022/08/04 05:24:11;;;;;;;;;;;;;;;19.91;75.31;95440.34;5077026;28;1095;-48
2022/08/04 05:26:40;;;;;;;;;;;;;;;19.95;73.58;95439.69;5077103;28;1032;-49
2022/08/04 05:29:08;;;;;;;;;;;;;;;19.88;74.57;95436.16;5077068;28;1044;-48
2022/08/04 05:31:40;;;;;;;;;;;;;;;20.00;74.78;95426.31;5076671;28;1906;-49
2022/08/04 05:34:08;;;;;;;;;;;;;;;19.97;73.93;95434.88;5076681;28;1119;-49
2022/08/04 05:36:48;;;;;;;;;;;;;;;20.14;73.31;95437.16;5076945;28;961;-49
2022/08/04 05:39:28;;;;;;;;;;;;;;;20.14;71.80;95437.16;5077013;28;1144;-48
2022/08/04 05:41:55;;;;;;;;;;;;;;;19.93;73.38;95436.34;5076668;28;1204;-49
2022/08/04 05:44:22;;;;;;;;;;;;;;;19.93;74.67;95436.34;5090676;28;1938;-48
2022/08/04 05:46:52;;;;;;;;;;;;;;;20.32;71.91;95440.00;5096664;28;1037;-48
2022/08/04 05:49:18;;;;;;;;;;;;;;;20.60;70.92;95445.16;5078987;28;1910;-48
2022/08/04 05:51:45;;;;;;;;;;;;;;;20.77;71.66;95448.19;5096831;28;1056;-49
2022/08/04 05:54:12;;;;;;;;;;;;;;;20.55;72.06;95447.63;5096486;28;1185;-49
2022/08/04 05:56:39;;;;;;;;;;;;;;;20.17;72.30;95448.41;5096746;28;1084;-49
2022/08/04 05:59:05;;;;;;;;;;;;;;;20.17;73.09;95442.16;5096581;28;1013;-49
2022/08/04 06:01:32;;;;;;;;;;;;;;;20.08;74.19;95452.41;5096778;28;961;-48
2022/08/04 06:04:00;;;;;;;;;;;;;;;20.50;73.60;95446.63;5096860;28;954;-49
2022/08/04 06:06:26;;;;;;;;;;;;;;;21.11;69.65;95445.25;5096443;28;1044;-49
2022/08/04 06:08:53;;;;;;;;;;;;;;;20.99;69.37;95443.22;5096543;28;1088;-49
2022/08/04 06:11:20;;;;;;;;;;;;;;;21.20;69.40;95443.94;5096249;28;1918;-49
2022/08/04 06:13:49;;;;;;;;;;;;;;;21.56;68.94;95448.69;5096415;28;1085;-49
2022/08/04 06:16:17;;;;;;;;;;;;;;;21.70;67.72;95440.41;5096122;28;1100;-49
2022/08/04 06:18:44;;;;;;;;;;;;;;;21.93;67.52;95448.78;5096568;28;1008;-49
2022/08/04 06:21:11;;;;;;;;;;;;;;;21.89;67.83;95449.44;5096328;28;1037;-49
2022/08/04 06:23:38;;;;;;;;;;;;;;;21.83;67.22;95452.00;5096211;28;1028;-49
2022/08/04 06:26:06;;;;;;;;;;;;;;;21.96;66.81;95440.13;5096161;28;1119;-48
2022/08/04 06:28:32;;;;;;;;;;;;;;;22.18;65.57;95442.44;5096002;28;1032;-49
2022/08/04 06:31:02;;;;;;;;;;;;;;;22.47;65.20;95440.03;5078316;28;1910;-48
2022/08/04 06:33:32;;;;;;;;;;;;;;;22.54;63.98;95455.25;5095279;28;1020;-48
2022/08/04 06:36:00;;;;;;;;;;;;;;;22.70;65.15;95450.22;5096049;28;993;-49
2022/08/04 06:38:27;;;;;;;;;;;;;;;22.75;65.78;95447.66;5095794;28;950;-49
2022/08/04 06:40:54;;;;;;;;;;;;;;;22.78;66.37;95448.00;5078050;28;1049;-48
2022/08/04 06:43:21;;;;;;;;;;;;;;;22.89;65.65;95445.56;5089952;28;1150;-49
2022/08/04 06:45:47;;;;;;;;;;;;;;;23.04;62.55;95440.53;5075838;28;982;-49
2022/08/04 06:48:14;;;;;;;;;;;;;;;23.17;63.22;95444.97;5075459;28;1041;-49
2022/08/04 06:50:42;;;;;;;;;;;;;;;23.38;64.86;95443.59;5075550;28;1909;-49
2022/08/04 06:53:08;;;;;;;;;;;;;;;23.39;63.78;95437.06;5075186;28;1048;-49
2022/08/04 06:55:34;;;;;;;;;;;;;;;23.54;60.09;95429.28;5075269;28;1085;-49
2022/08/04 06:58:01;;;;;;;;;;;;;;;23.55;60.39;95443.75;5075165;28;1048;-49
2022/08/04 07:00:28;;;;;;;;;;;;;;;23.88;62.60;95443.19;5075686;28;1016;-49
2022/08/04 07:02:54;;;;;;;;;;;;;;;24.02;60.88;95438.34;5075059;28;1017;-49
2022/08/04 07:05:21;;;;;;;;;;;;;;;24.30;59.55;95439.47;5075247;28;1068;-49
2022/08/04 07:07:47;;;;;;;;;;;;;;;24.44;58.67;95437.31;5075125;28;953;-49
2022/08/04 07:10:14;;;;;;;;;;;;;;;24.56;58.17;95438.13;5074954;28;1906;-49
2022/08/04 07:12:40;;;;;;;;;;;;;;;24.54;58.56;95437.56;5075105;28;938;-49
2022/08/04 07:15:07;;;;;;;;;;;;;;;24.66;58.14;95435.63;5075098;28;1040;-49
2022/08/04 07:17:36;;;;;;;;;;;;;;;24.72;58.36;95434.66;5074844;28;1052;-48
2022/08/04 07:20:04;;;;;;;;;;;;;;;24.73;57.96;95430.81;5074991;28;950;-49
2022/08/04 07:22:30;;;;;;;;;;;;;;;24.80;59.54;95429.88;5074775;28;962;-48
2022/08/04 07:24:57;;;;;;;;;;;;;;;25.08;58.98;95426.28;5074815;28;1060;-49
2022/08/04 07:27:24;;;;;;;;;;;;;;;25.13;59.58;95420.91;5074908;28;949;-49
2022/08/04 07:29:50;;;;;;;;;;;;;;;25.09;59.24;95420.56;5074821;28;2062;-49
2022/08/04 07:32:18;;;;;;;;;;;;;;;24.75;61.30;95425.94;5074761;28;1024;-49
2022/08/04 07:34:45;;;;;;;;;;;;;;;24.60;62.22;95425.66;5074538;28;977;-49
2022/08/04 07:37:12;;;;;;;;;;;;;;;24.81;61.42;95424.13;5074419;28;1025;-49
2022/08/04 07:39:38;;;;;;;;;;;;;;;25.18;60.50;95425.66;5074765;28;1164;-49
2022/08/04 07:42:04;;;;;;;;;;;;;;;25.34;59.25;95424.84;5074650;28;1048;-49
2022/08/04 07:44:31;;;;;;;;;;;;;;;25.53;58.71;95419.97;5089706;28;1206;-49
2022/08/04 07:46:57;;;;;;;;;;;;;;;25.81;57.91;95418.22;5094605;28;1072;-49
2022/08/04 07:49:25;;;;;;;;;;;;;;;25.93;57.50;95415.41;5094240;28;1910;-49
2022/08/04 07:51:52;;;;;;;;;;;;;;;26.14;55.42;95417.34;5094545;28;954;-49
2022/08/04 07:54:19;;;;;;;;;;;;;;;26.39;55.81;95422.38;5094018;28;1084;-50
2022/08/04 07:56:47;;;;;;;;;;;;;;;26.57;55.19;95420.41;5094549;28;1088;-49
2022/08/04 07:59:14;;;;;;;;;;;;;;;26.72;54.41;95422.53;5094270;28;1844;-49
2022/08/04 08:01:41;;;;;;;;;;;;;;;26.89;54.42;95412.31;5094770;28;954;-48
2022/08/04 08:04:09;;;;;;;;;;;;;;;26.87;54.83;95419.97;5094244;28;1037;-49
2022/08/04 08:06:36;;;;;;;;;;;;;;;27.01;53.81;95423.13;5094374;28;984;-48
2022/08/04 08:09:22;;;;;;;;;;;;;;;27.01;53.64;95415.72;5094110;28;1049;-49
2022/08/04 08:11:50;;;;;;;;;;;;;;;26.65;53.63;95425.47;5094416;28;961;-49
2022/08/04 08:14:16;;;;;;;;;;;;;;;26.13;53.83;95425.84;5093973;28;1020;-49
2022/08/04 08:16:43;;;;;;;;;;;;;;;25.74;54.52;95418.41;5094162;28;1028;-49
2022/08/04 08:19:10;;;;;;;;;;;;;;;26.09;55.36;95420.06;5094082;28;2040;-49
2022/08/04 08:21:36;;;;;;;;;;;;;;;26.51;53.66;95421.44;5094027;28;1867;-49
2022/08/04 08:24:03;;;;;;;;;;;;;;;26.82;53.10;95422.63;5093968;28;1049;-49
2022/08/04 08:26:29;;;;;;;;;;;;;;;27.00;51.70;95426.97;5094107;28;999;-49
2022/08/04 08:28:56;;;;;;;;;;;;;;;27.52;51.91;95422.81;5093866;28;958;-49
2022/08/04 08:31:22;;;;;;;;;;;;;;;27.50;50.44;95423.06;5093819;28;1910;-49
2022/08/04 08:33:49;;;;;;;;;;;;;;;27.16;51.23;95427.94;5093679;28;1033;-49
2022/08/04 08:36:24;;;;;;;;;;;;;;;27.18;52.18;95429.34;5093924;28;1088;-49
2022/08/04 08:38:54;;;;;;;;;;;;;;;27.29;53.08;95426.75;5093754;28;1036;-49
2022/08/04 08:41:32;;;;;;;;;;;;;;;27.23;50.61;95418.41;5093822;28;1043;-49
2022/08/04 08:44:04;;;;;;;;;;;;;;;26.94;51.23;95434.31;5082594;28;1153;-49
2022/08/04 08:46:53;;;;;;;;;;;;;;;26.92;53.56;95428.25;5073321;28;1009;-49
2022/08/04 08:49:19;;;;;;;;;;;;;;;26.89;53.17;95426.03;5073365;28;973;-49
2022/08/04 08:52:04;;;;;;;;;;;;;;;26.87;52.77;95422.72;5055725;28;1914;-49
2022/08/04 08:54:36;;;;;;;;;;;;;;;26.81;53.40;95419.06;5073078;28;1077;-49
2022/08/04 08:57:15;;;;;;;;;;;;;;;27.10;51.74;95415.28;5072755;28;1069;-49
2022/08/04 08:59:47;;;;;;;;;;;;;;;27.72;50.82;95412.00;5073379;28;974;-49
2022/08/04 09:02:31;;;;;;;;;;;;;;;28.14;50.00;95422.22;5073376;28;955;-49
2022/08/04 09:05:00;;;;;;;;;;;;;;;28.42;50.26;95412.75;5073145;28;1032;-49
2022/08/04 09:07:45;;;;;;;;;;;;;;;28.29;49.40;95412.41;5073177;28;1069;-49
2022/08/04 09:10:17;;;;;;;;;;;;;;;28.24;50.19;95416.75;5073193;28;1914;-49
2022/08/04 09:13:03;;;;;;;;;;;;;;;28.01;49.96;95411.69;5073303;28;1054;-49
2022/08/04 09:15:29;;;;;;;;;;;;;;;28.20;48.67;95417.56;5073023;28;1029;-49
2022/08/04 09:18:01;;;;;;;;;;;;;;;28.36;46.78;95413.81;5073053;28;1025;-49
2022/08/04 09:20:29;;;;;;;;;;;;;;;28.37;48.53;95411.91;5072960;28;1041;-49
2022/08/04 09:23:05;;;;;;;;;;;;;;;28.51;47.35;95402.03;5073195;28;1037;-49
2022/08/04 09:25:37;;;;;;;;;;;;;;;28.56;49.08;95396.59;5073035;28;1052;-50
2022/08/04 09:28:09;;;;;;;;;;;;;;;28.66;47.18;95400.50;5073010;28;1012;-49
2022/08/04 09:30:41;;;;;;;;;;;;;;;28.53;47.35;95394.41;5072754;28;1976;-49
2022/08/04 09:33:13;;;;;;;;;;;;;;;28.56;46.95;95396.59;5073079;28;1016;-49
2022/08/04 09:35:39;;;;;;;;;;;;;;;28.57;48.62;95394.66;5072907;28;1027;-49
2022/08/04 09:38:05;;;;;;;;;;;;;;;28.61;47.76;95395.81;5072920;28;965;-49
2022/08/04 09:40:49;;;;;;;;;;;;;;;28.69;48.31;95398.03;5072798;28;1142;-49
2022/08/04 09:43:32;;;;;;;;;;;;;;;28.78;47.88;95390.09;5077574;28;1162;-49
2022/08/04 09:45:58;;;;;;;;;;;;;;;28.89;48.10;95390.94;5093069;28;1037;-49
2022/08/04 09:48:33;;;;;;;;;;;;;;;28.96;47.42;95388.75;5093057;28;1041;-49
2022/08/04 09:51:02;;;;;;;;;;;;;;;28.99;46.54;95393.72;5092774;28;1902;-49
2022/08/04 09:53:28;;;;;;;;;;;;;;;28.97;45.56;95390.41;5092947;28;1033;-49
2022/08/04 09:55:58;;;;;;;;;;;;;;;28.94;45.68;95385.44;5092756;28;1092;-49
2022/08/04 09:58:24;;;;;;;;;;;;;;;28.94;44.20;95389.03;5093303;28;1049;-49
2022/08/04 10:01:01;;;;;;;;;;;;;;;28.96;44.94;95384.06;5092684;28;1084;-49
2022/08/04 10:03:32;;;;;;;;;;;;;;;29.04;45.25;95376.38;5092956;28;1013;-49
2022/08/04 10:06:15;;;;;;;;;;;;;;;29.16;43.94;95382.50;5092663;28;1087;-49
2022/08/04 10:09:13;;;;;;;;;;;;;;;29.20;42.00;95376.16;5093112;28;996;-49
2022/08/04 10:11:48;;;;;;;;;;;;;;;29.20;42.58;95376.16;5051553;28;1914;-49
2022/08/04 10:14:23;;;;;;;;;;;;;;;29.26;41.52;95376.19;5096377;28;923;-49
2022/08/04 10:16:57;;;;;;;;;;;;;;;29.20;41.05;95370.66;5096520;28;974;-49
2022/08/04 10:19:25;;;;;;;;;;;;;;;29.14;39.58;95374.50;5096355;28;1068;-49
2022/08/04 10:21:54;;;;;;;;;;;;;;;29.18;39.54;95372.88;5096310;28;988;-49
2022/08/04 10:24:29;;;;;;;;;;;;;;;29.14;38.17;95359.91;5096182;28;1095;-49
2022/08/04 10:26:58;;;;;;;;;;;;;;;29.27;38.09;95366.81;5096016;28;1053;-49
2022/08/04 10:29:36;;;;;;;;;;;;;;;29.32;38.00;95364.88;5078374;28;1011;-49
2022/08/04 10:32:24;;;;;;;;;;;;;;;29.37;39.59;95362.13;5095954;28;1119;-49
2022/08/04 10:34:56;;;;;;;;;;;;;;;29.55;39.89;95351.66;5096115;28;1957;-49
2022/08/04 10:37:25;;;;;;;;;;;;;;;29.63;40.80;95350.28;5095731;28;970;-49
2022/08/04 10:43:01;;;;;;;;;;;;;;;29.63;40.25;95342.84;5013739;28;1171;-49
2022/08/04 10:45:37;;;;;;;;;;;;;;;29.50;38.31;95341.50;5013524;28;978;-49
2022/08/04 10:48:12;;;;;;;;;;;;;;;29.55;38.57;95340.66;5048638;28;1182;-49
2022/08/04 10:50:41;;;;;;;;;;;;;;;29.57;38.92;95342.00;5075592;28;1953;-49
2022/08/04 10:53:17;;;;;;;;;;;;;;;29.59;38.40;95344.50;5075399;28;1057;-49
2022/08/04 10:55:49;;;;;;;;;;;;;;;29.64;39.44;95335.41;5075640;28;1235;-49
2022/08/04 10:58:19;;;;;;;;;;;;;;;29.80;38.63;95339.00;5075307;28;1045;-48
2022/08/04 11:00:45;;;;;;;;;;;;;;;29.84;38.74;95337.31;5075469;28;1033;-49
2022/08/04 11:03:11;;;;;;;;;;;;;;;29.87;38.65;95334.03;5075330;28;970;-49
2022/08/04 11:05:51;;;;;;;;;;;;;;;29.93;40.10;95328.22;5075396;28;1027;-49
2022/08/04 11:08:24;;;;;;;;;;;;;;;29.94;37.19;95337.31;5075033;28;1042;-49
2022/08/04 11:10:59;;;;;;;;;;;;;;;29.97;38.69;95331.22;5075032;28;1985;-49
2022/08/04 11:13:31;;;;;;;;;;;;;;;29.92;38.13;95337.59;5075173;28;1016;-49
2022/08/04 11:16:01;;;;;;;;;;;;;;;29.84;37.55;95331.81;5075184;28;1214;-48
2022/08/04 11:18:39;;;;;;;;;;;;;;;29.90;37.61;95322.44;5075089;28;974;-49
2022/08/04 11:21:28;;;;;;;;;;;;;;;29.94;37.96;95313.34;5074510;28;1021;-49
2022/08/04 11:24:14;;;;;;;;;;;;;;;29.91;38.67;95316.63;5064428;28;1267;-49
2022/08/04 11:26:47;;;;;;;;;;;;;;;29.81;38.56;95310.34;5060664;28;1119;-49
2022/08/04 11:29:25;;;;;;;;;;;;;;;29.47;37.74;95316.44;5074826;28;1053;-50
2022/08/04 11:31:52;;;;;;;;;;;;;;;29.12;37.30;95298.75;5074427;28;1965;-49
2022/08/04 11:34:18;;;;;;;;;;;;;;;29.00;37.92;95308.13;5074848;28;974;-49
2022/08/04 11:36:53;;;;;;;;;;;;;;;28.87;39.16;95305.91;5074596;28;1012;-49
2022/08/04 11:39:31;;;;;;;;;;;;;;;28.65;38.98;95299.81;5074667;28;1222;-49
2022/08/04 11:42:30;;;;;;;;;;;;;;;28.49;39.48;95302.47;5074373;28;1033;-49
2022/08/04 11:45:00;;;;;;;;;;;;;;;28.35;39.08;95295.84;5030153;28;1386;-48
2022/08/04 11:47:33;;;;;;;;;;;;;;;28.41;39.82;95294.78;5074228;28;1067;-49
2022/08/04 11:50:20;;;;;;;;;;;;;;;28.79;39.68;95301.75;5074322;28;1898;-49
2022/08/04 11:52:47;;;;;;;;;;;;;;;29.20;38.78;95295.50;5074140;28;1021;-48
2022/08/04 11:55:15;;;;;;;;;;;;;;;29.46;36.57;95298.22;5074364;28;1108;-49
2022/08/04 11:57:42;;;;;;;;;;;;;;;29.63;36.59;95289.66;5074070;28;1087;-49
2022/08/04 12:00:11;;;;;;;;;;;;;;;29.70;37.51;95287.47;5074229;28;966;-49
2022/08/04 12:02:40;;;;;;;;;;;;;;;29.78;38.32;95287.75;5074038;28;1027;-49
2022/08/04 12:05:06;;;;;;;;;;;;;;;29.80;37.58;95287.44;5074008;28;980;-48
2022/08/04 12:07:47;;;;;;;;;;;;;;;29.73;37.97;95285.00;5074122;28;1053;-49
2022/08/04 12:10:21;;;;;;;;;;;;;;;29.81;39.43;95274.53;5074048;28;1906;-49
2022/08/04 12:13:00;;;;;;;;;;;;;;;29.88;38.64;95283.28;5073919;28;1023;-49
2022/08/04 12:15:29;;;;;;;;;;;;;;;29.96;38.37;95282.75;5073821;28;982;-49
2022/08/04 12:18:13;;;;;;;;;;;;;;;29.97;35.74;95279.72;5073902;28;1025;-49
2022/08/04 12:20:47;;;;;;;;;;;;;;;30.01;38.39;95273.63;5073984;28;958;-48
2022/08/04 12:23:24;;;;;;;;;;;;;;;29.89;38.40;95268.44;5073671;28;978;-49
2022/08/04 12:25:53;;;;;;;;;;;;;;;29.80;36.52;95272.84;5073724;28;1020;-49
2022/08/04 12:28:23;;;;;;;;;;;;;;;29.88;38.25;95269.50;5073659;28;965;-49
2022/08/04 12:30:54;;;;;;;;;;;;;;;29.95;37.82;95267.28;5074014;28;1909;-49
2022/08/04 12:33:23;;;;;;;;;;;;;;;29.97;37.22;95265.09;5072880;28;1020;-49
2022/08/04 12:35:52;;;;;;;;;;;;;;;29.72;37.87;95260.44;5073648;28;1041;-48
2022/08/04 12:38:20;;;;;;;;;;;;;;;29.57;38.62;95264.06;5073385;28;966;-49
2022/08/04 12:40:48;;;;;;;;;;;;;;;29.32;37.39;95271.25;5073748;28;950;-49
2022/08/04 12:43:17;;;;;;;;;;;;;;;29.11;37.75;95261.34;5077736;28;1218;-48
2022/08/04 12:45:47;;;;;;;;;;;;;;;29.02;37.77;95264.63;5093553;28;1033;-49
2022/08/04 12:48:15;;;;;;;;;;;;;;;28.90;36.93;95275.09;5093887;28;982;-49
2022/08/04 12:50:45;;;;;;;;;;;;;;;28.94;37.07;95267.94;5093627;28;1979;-49
2022/08/04 12:53:13;;;;;;;;;;;;;;;28.93;38.76;95265.44;5093283;28;957;-49
2022/08/04 12:59:04;;;;;;;;;;;;;;;28.81;39.02;95257.47;5093347;28;961;-49
2022/08/04 13:01:31;;;;;;;;;;;;;;;28.70;38.87;95255.81;5093418;28;985;-48
2022/08/04 13:04:00;;;;;;;;;;;;;;;28.71;38.76;95263.78;5093513;28;1016;-49
2022/08/04 13:06:34;;;;;;;;;;;;;;;28.78;39.65;95266.28;5093512;28;1060;-49
2022/08/04 13:09:04;;;;;;;;;;;;;;;28.80;39.99;95259.41;5093346;28;1046;-49
2022/08/04 13:11:33;;;;;;;;;;;;;;;28.84;39.63;95256.94;5093357;28;1918;-49
2022/08/04 13:14:00;;;;;;;;;;;;;;;29.01;39.14;95251.16;5093085;28;1060;-49
2022/08/04 13:16:30;;;;;;;;;;;;;;;29.24;38.74;95249.81;5093456;28;984;-49
2022/08/04 13:18:56;;;;;;;;;;;;;;;29.44;36.89;95257.19;5093270;28;942;-49
2022/08/04 13:21:24;;;;;;;;;;;;;;;29.44;38.63;95248.94;5093171;28;1065;-49
2022/08/04 13:23:51;;;;;;;;;;;;;;;29.39;39.20;95238.75;5093231;28;1013;-49
2022/08/04 13:26:18;;;;;;;;;;;;;;;29.42;39.09;95242.06;5093284;28;1056;-49
2022/08/04 13:28:46;;;;;;;;;;;;;;;29.34;39.35;95243.44;5092988;28;1063;-49
2022/08/04 13:31:20;;;;;;;;;;;;;;;29.36;40.88;95242.06;5093062;28;1996;-49
2022/08/04 13:33:48;;;;;;;;;;;;;;;29.43;39.96;95238.22;5093243;28;970;-49